createdAt,value
2018-09-18T00:00:06.940Z,16.30
2018-09-18T00:02:35.844Z,16.20
2018-09-18T00:05:05.129Z,16.07
2018-09-18T00:07:33.593Z,16.15
2018-09-18T00:10:02.479Z,16.14
2018-09-18T00:12:30.956Z,15.98
2018-09-18T00:15:00.675Z,16.06
2018-09-18T00:17:29.908Z,16.05
2018-09-18T00:19:59.721Z,16.08
2018-09-18T00:22:28.309Z,16.01
2018-09-18T00:24:57.888Z,16.02
2018-09-18T00:27:27.480Z,15.95
2018-09-18T00:29:55.920Z,15.79
2018-09-18T00:32:24.624Z,15.71
2018-09-18T00:34:53.341Z,15.54
2018-09-18T00:37:22.748Z,15.50
2018-09-18T00:39:51.188Z,15.55
2018-09-18T00:42:19.696Z,15.59
2018-09-18T00:44:48.562Z,15.44
2018-09-18T00:47:18.188Z,15.32
2018-09-18T00:49:46.629Z,15.16
2018-09-18T00:52:16.038Z,15.06
2018-09-18T00:54:45.328Z,15.07
2018-09-18T00:57:13.772Z,15.10
2018-09-18T00:59:42.625Z,15.12
2018-09-18T01:02:11.072Z,15.14
2018-09-18T01:04:39.557Z,15.14
2018-09-18T01:07:09.330Z,15.25
2018-09-18T01:09:39.776Z,15.17
2018-09-18T01:12:09.263Z,15.24
2018-09-18T01:14:40.047Z,15.29
2018-09-18T01:17:09.007Z,15.30
2018-09-18T01:19:38.395Z,15.30
2018-09-18T01:22:07.386Z,15.43
2018-09-18T01:24:36.931Z,15.36
2018-09-18T01:27:06.106Z,15.31
2018-09-18T01:29:35.228Z,15.25
2018-09-18T01:32:04.336Z,15.31
2018-09-18T01:34:33.419Z,15.14
2018-09-18T01:37:02.326Z,15.09
2018-09-18T01:39:30.798Z,15.08
2018-09-18T01:42:00.665Z,15.09
2018-09-18T01:44:30.368Z,15.03
2018-09-18T01:46:58.800Z,14.97
2018-09-18T01:49:27.362Z,14.92
2018-09-18T01:51:56.045Z,14.74
2018-09-18T01:54:26.166Z,14.66
2018-09-18T01:56:57.674Z,14.54
2018-09-18T01:59:26.988Z,14.53
2018-09-18T02:01:56.134Z,14.48
2018-09-18T02:04:25.100Z,14.34
2018-09-18T02:06:54.930Z,14.18
2018-09-18T02:09:23.883Z,14.09
2018-09-18T02:11:52.887Z,14.14
2018-09-18T02:14:21.329Z,14.09
2018-09-18T02:16:50.738Z,14.11
2018-09-18T02:19:19.901Z,14.12
2018-09-18T02:21:48.500Z,14.10
2018-09-18T02:24:18.211Z,14.00
2018-09-18T02:26:47.537Z,14.02
2018-09-18T02:29:17.302Z,14.05
2018-09-18T02:31:46.669Z,14.00
2018-09-18T02:34:15.915Z,13.91
2018-09-18T02:36:46.042Z,13.87
2018-09-18T02:39:15.876Z,13.92
2018-09-18T02:41:47.101Z,13.87
2018-09-18T02:44:16.973Z,13.84
2018-09-18T02:46:45.724Z,13.92
2018-09-18T02:49:15.784Z,13.98
2018-09-18T02:51:44.924Z,14.01
2018-09-18T02:54:13.800Z,13.87
2018-09-18T02:56:42.262Z,13.86
2018-09-18T02:59:11.220Z,13.86
2018-09-18T03:01:41.042Z,13.81
2018-09-18T03:04:10.705Z,13.83
2018-09-18T03:06:39.198Z,13.82
2018-09-18T03:09:10.566Z,13.83
2018-09-18T03:11:39.292Z,13.87
2018-09-18T03:14:08.214Z,13.81
2018-09-18T03:16:37.172Z,13.78
2018-09-18T03:19:06.237Z,13.82
2018-09-18T03:21:35.272Z,13.78
2018-09-18T03:24:03.835Z,13.84
2018-09-18T03:26:34.796Z,13.79
2018-09-18T03:29:04.463Z,13.65
2018-09-18T03:31:33.511Z,13.57
2018-09-18T03:34:02.687Z,13.65
2018-09-18T03:36:31.893Z,13.55
2018-09-18T03:39:00.366Z,13.58
2018-09-18T03:41:31.016Z,13.53
2018-09-18T03:43:59.677Z,13.51
2018-09-18T03:46:30.285Z,13.49
2018-09-18T03:48:58.960Z,13.42
2018-09-18T03:51:28.214Z,13.51
2018-09-18T03:53:58.295Z,13.43
2018-09-18T03:56:26.822Z,13.45
2018-09-18T03:58:55.761Z,13.42
2018-09-18T04:01:24.218Z,13.48
2018-09-18T04:03:53.225Z,13.48
2018-09-18T04:06:22.175Z,13.45
2018-09-18T04:08:51.420Z,13.29
2018-09-18T04:11:20.227Z,13.35
2018-09-18T04:13:49.673Z,13.36
2018-09-18T04:16:18.465Z,13.32
2018-09-18T04:18:48.376Z,13.33
2018-09-18T04:21:18.286Z,13.35
2018-09-18T04:23:47.583Z,13.27
2018-09-18T04:26:16.050Z,13.24
2018-09-18T04:28:44.624Z,13.18
2018-09-18T04:31:13.397Z,12.91
2018-09-18T04:33:44.017Z,13.08
2018-09-18T04:36:12.475Z,13.08
2018-09-18T04:38:42.857Z,13.02
2018-09-18T04:41:11.788Z,13.03
2018-09-18T04:43:45.649Z,13.08
2018-09-18T04:46:14.540Z,13.14
2018-09-18T04:48:44.159Z,13.08
2018-09-18T04:51:13.849Z,13.09
2018-09-18T04:53:42.575Z,13.03
2018-09-18T04:56:15.561Z,12.97
2018-09-18T04:58:44.817Z,12.95
2018-09-18T05:01:14.570Z,12.97
2018-09-18T05:03:44.405Z,12.96
2018-09-18T05:06:13.962Z,12.97
2018-09-18T05:08:43.752Z,12.86
2018-09-18T05:11:12.618Z,12.91
2018-09-18T05:13:42.071Z,12.74
2018-09-18T05:16:10.867Z,12.76
2018-09-18T05:18:40.515Z,12.67
2018-09-18T05:21:09.870Z,12.58
2018-09-18T05:23:38.703Z,12.66
2018-09-18T05:26:07.864Z,12.68
2018-09-18T05:28:36.346Z,12.70
2018-09-18T05:31:06.090Z,12.76
2018-09-18T05:33:35.174Z,12.78
2018-09-18T05:36:03.912Z,12.79
2018-09-18T05:38:32.746Z,12.91
2018-09-18T05:41:03.594Z,12.80
2018-09-18T05:43:32.609Z,12.90
2018-09-18T05:46:02.464Z,12.88
2018-09-18T05:48:34.428Z,13.02
2018-09-18T05:51:04.388Z,13.09
2018-09-18T05:53:34.114Z,13.16
2018-09-18T05:56:04.095Z,13.26
2018-09-18T05:58:32.966Z,13.18
2018-09-18T06:01:01.432Z,13.21
2018-09-18T06:03:30.035Z,13.28
2018-09-18T06:05:59.424Z,13.40
2018-09-18T06:08:27.906Z,13.44
2018-09-18T06:10:58.598Z,13.45
2018-09-18T06:13:27.302Z,13.54
2018-09-18T06:15:56.189Z,13.51
2018-09-18T06:18:25.360Z,13.61
2018-09-18T06:20:55.188Z,13.64
2018-09-18T06:23:24.318Z,13.73
2018-09-18T06:25:57.221Z,13.90
2018-09-18T06:28:26.261Z,13.99
2018-09-18T06:30:54.951Z,14.09
2018-09-18T06:33:24.761Z,14.18
2018-09-18T06:35:53.327Z,14.35
2018-09-18T06:38:21.883Z,14.50
2018-09-18T06:40:53.734Z,14.45
2018-09-18T06:43:22.620Z,14.54
2018-09-18T06:45:51.629Z,14.67
2018-09-18T06:48:21.261Z,14.81
2018-09-18T06:50:51.415Z,14.99
2018-09-18T06:53:21.842Z,15.15
2018-09-18T06:55:50.700Z,15.24
2018-09-18T06:58:21.064Z,15.40
2018-09-18T07:00:49.591Z,15.40
2018-09-18T07:03:18.314Z,15.48
2018-09-18T07:05:47.970Z,15.58
2018-09-18T07:08:16.780Z,15.78
2018-09-18T07:10:45.257Z,16.06
2018-09-18T07:13:14.521Z,16.25
2018-09-18T07:15:45.249Z,16.60
2018-09-18T07:18:15.131Z,16.99
2018-09-18T07:20:43.612Z,17.22
2018-09-18T07:23:12.077Z,17.38
2018-09-18T07:25:40.539Z,17.51
2018-09-18T07:28:09.017Z,17.65
2018-09-18T07:30:37.954Z,17.67
2018-09-18T07:33:07.178Z,17.85
2018-09-18T07:35:35.635Z,17.96
2018-09-18T07:38:05.442Z,17.99
2018-09-18T07:40:34.691Z,18.16
2018-09-18T07:43:04.098Z,18.27
2018-09-18T07:45:33.297Z,18.42
2018-09-18T07:48:02.476Z,18.42
2018-09-18T07:50:31.417Z,18.29
2018-09-18T07:53:00.269Z,18.51
2018-09-18T07:55:29.488Z,18.62
2018-09-18T07:57:58.639Z,18.84
2018-09-18T08:00:27.478Z,18.92
2018-09-18T08:02:56.376Z,18.95
2018-09-18T08:05:25.611Z,18.96
2018-09-18T08:07:55.063Z,19.08
2018-09-18T08:10:23.693Z,19.16
2018-09-18T08:12:53.765Z,19.37
2018-09-18T08:15:23.004Z,19.54
2018-09-18T08:17:51.490Z,19.46
2018-09-18T08:20:21.944Z,19.47
2018-09-18T08:22:51.358Z,19.51
2018-09-18T08:25:20.707Z,19.67
2018-09-18T08:27:49.511Z,19.84
2018-09-18T08:30:18.828Z,19.91
2018-09-18T08:32:47.577Z,20.04
2018-09-18T08:35:17.268Z,20.25
2018-09-18T08:37:45.732Z,20.50
2018-09-18T08:40:14.478Z,20.49
2018-09-18T08:42:44.416Z,20.62
2018-09-18T08:45:14.213Z,20.67
2018-09-18T08:47:43.726Z,20.81
2018-09-18T08:50:12.417Z,20.90
2018-09-18T08:52:41.252Z,21.00
2018-09-18T08:55:10.067Z,21.20
2018-09-18T08:57:39.674Z,21.46
2018-09-18T09:00:08.255Z,21.52
2018-09-18T09:02:37.067Z,21.64
2018-09-18T09:05:06.507Z,21.61
2018-09-18T09:07:35.055Z,21.63
2018-09-18T09:10:04.299Z,21.75
2018-09-18T09:12:34.872Z,21.80
2018-09-18T09:15:03.705Z,21.92
2018-09-18T09:17:32.989Z,22.30
2018-09-18T09:20:02.743Z,22.69
2018-09-18T09:22:32.882Z,22.68
2018-09-18T09:25:01.354Z,22.73
2018-09-18T09:27:30.004Z,22.91
2018-09-18T09:30:00.083Z,22.95
2018-09-18T09:32:29.940Z,23.16
2018-09-18T09:34:59.512Z,23.43
2018-09-18T09:37:28.216Z,23.42
2018-09-18T09:39:56.716Z,23.49
2018-09-18T09:42:25.628Z,23.73
2018-09-18T09:44:54.371Z,23.93
2018-09-18T09:47:23.413Z,23.90
2018-09-18T09:49:52.703Z,24.01
2018-09-18T09:52:21.674Z,24.22
2018-09-18T09:54:52.157Z,24.32
2018-09-18T09:57:21.425Z,24.17
2018-09-18T09:59:49.877Z,24.54
2018-09-18T10:02:20.745Z,24.41
2018-09-18T10:04:49.186Z,24.66
2018-09-18T10:07:18.317Z,24.92
2018-09-18T10:09:48.176Z,24.94
2018-09-18T10:12:16.923Z,24.88
2018-09-18T10:14:46.517Z,25.06
2018-09-18T10:17:15.923Z,25.22
2018-09-18T10:19:46.209Z,25.59
2018-09-18T10:22:15.073Z,25.68
2018-09-18T10:24:45.655Z,25.90
2018-09-18T10:27:14.473Z,26.07
2018-09-18T10:29:43.390Z,25.97
2018-09-18T10:32:11.839Z,26.21
2018-09-18T10:34:40.347Z,26.21
2018-09-18T10:37:09.182Z,26.21
2018-09-18T10:39:38.052Z,26.09
2018-09-18T10:42:07.079Z,26.19
2018-09-18T10:44:36.190Z,26.44
2018-09-18T10:47:04.998Z,26.59
2018-09-18T10:49:34.010Z,26.58
2018-09-18T10:52:04.614Z,26.65
2018-09-18T10:54:33.957Z,26.64
2018-09-18T10:57:03.394Z,26.96
2018-09-18T10:59:32.449Z,26.98
2018-09-18T11:02:01.523Z,27.15
2018-09-18T11:04:30.663Z,26.76
2018-09-18T11:07:00.443Z,26.96
2018-09-18T11:09:29.263Z,26.98
2018-09-18T11:11:58.309Z,27.02
2018-09-18T11:14:26.738Z,27.46
2018-09-18T11:16:55.328Z,27.68
2018-09-18T11:19:24.924Z,27.65
2018-09-18T11:21:54.965Z,27.78
2018-09-18T11:24:24.269Z,27.70
2018-09-18T11:26:53.472Z,27.94
2018-09-18T11:29:22.262Z,28.01
2018-09-18T11:31:51.137Z,27.82
2018-09-18T11:34:21.135Z,28.15
2018-09-18T11:36:50.208Z,28.14
2018-09-18T11:39:19.299Z,27.73
2018-09-18T11:41:47.751Z,27.94
2018-09-18T11:44:22.672Z,28.11
2018-09-18T11:46:51.579Z,28.10
2018-09-18T11:49:24.374Z,28.49
2018-09-18T11:51:57.103Z,28.27
2018-09-18T11:54:25.673Z,28.42
2018-09-18T11:56:54.926Z,28.48
2018-09-18T11:59:24.580Z,28.55
2018-09-18T12:01:53.488Z,28.47
2018-09-18T12:04:22.798Z,28.56
2018-09-18T12:06:52.020Z,28.86
2018-09-18T12:09:20.736Z,28.82
2018-09-18T12:11:50.073Z,29.27
2018-09-18T12:14:18.644Z,29.43
2018-09-18T12:16:48.654Z,29.74
2018-09-18T12:19:18.924Z,29.46
2018-09-18T12:21:48.034Z,29.77
2018-09-18T12:24:17.568Z,29.13
2018-09-18T12:26:47.386Z,29.86
2018-09-18T12:29:16.169Z,29.93
2018-09-18T12:31:44.793Z,29.87
2018-09-18T12:34:14.434Z,30.09
2018-09-18T12:36:42.905Z,29.81
2018-09-18T12:39:12.189Z,30.15
2018-09-18T12:41:41.630Z,30.21
2018-09-18T12:44:10.396Z,30.08
2018-09-18T12:46:41.381Z,30.59
2018-09-18T12:49:10.449Z,30.72
2018-09-18T12:51:38.957Z,30.70
2018-09-18T12:54:08.028Z,30.50
2018-09-18T12:56:37.026Z,30.06
2018-09-18T12:59:07.071Z,30.02
2018-09-18T13:01:36.635Z,30.75
2018-09-18T13:04:06.441Z,30.56
2018-09-18T13:06:35.852Z,30.31
2018-09-18T13:09:08.024Z,30.07
2018-09-18T13:11:37.538Z,29.95
2018-09-18T13:14:06.029Z,30.47
2018-09-18T13:16:35.899Z,30.53
2018-09-18T13:19:05.238Z,30.77
2018-09-18T13:21:34.011Z,30.65
2018-09-18T13:24:03.485Z,30.33
2018-09-18T13:26:33.170Z,30.66
2018-09-18T13:29:01.645Z,30.65
2018-09-18T13:31:30.680Z,30.78
2018-09-18T13:33:59.135Z,31.10
2018-09-18T13:36:28.070Z,31.20
2018-09-18T13:38:57.477Z,31.11
2018-09-18T13:41:26.969Z,31.15
2018-09-18T13:43:56.297Z,31.52
2018-09-18T13:46:24.836Z,31.35
2018-09-18T13:48:53.698Z,31.61
2018-09-18T13:51:22.538Z,31.65
2018-09-18T13:53:51.408Z,31.88
2018-09-18T13:56:20.607Z,32.07
2018-09-18T13:58:50.359Z,31.70
2018-09-18T14:01:19.044Z,31.99
2018-09-18T14:03:47.707Z,32.12
2018-09-18T14:06:16.842Z,32.31
2018-09-18T14:08:45.623Z,32.25
2018-09-18T14:11:15.472Z,32.21
2018-09-18T14:13:45.313Z,31.55
2018-09-18T14:16:14.648Z,31.32
2018-09-18T14:18:43.112Z,31.15
2018-09-18T14:21:12.592Z,31.99
2018-09-18T14:23:41.039Z,31.90
2018-09-18T14:26:11.255Z,32.06
2018-09-18T14:28:41.261Z,31.92
2018-09-18T14:31:09.729Z,31.92
2018-09-18T14:33:40.106Z,32.04
2018-09-18T14:36:09.237Z,32.25
2018-09-18T14:38:38.793Z,32.21
2018-09-18T14:41:07.603Z,32.04
2018-09-18T14:43:39.000Z,32.24
2018-09-18T14:46:08.337Z,31.97
2018-09-18T14:48:37.037Z,32.05
2018-09-18T14:51:07.399Z,32.04
2018-09-18T14:53:36.264Z,32.83
2018-09-18T14:56:05.482Z,32.17
2018-09-18T14:58:34.876Z,31.49
2018-09-18T15:01:03.797Z,31.73
2018-09-18T15:03:33.116Z,31.89
2018-09-18T15:06:01.578Z,32.27
2018-09-18T15:08:30.073Z,32.54
2018-09-18T15:11:05.947Z,33.22
2018-09-18T15:13:34.805Z,32.71
2018-09-18T15:16:04.292Z,32.61
2018-09-18T15:18:34.709Z,32.63
2018-09-18T15:21:04.093Z,32.82
2018-09-18T15:23:33.290Z,32.77
2018-09-18T15:26:02.703Z,32.80
2018-09-18T15:28:32.039Z,33.25
2018-09-18T15:31:01.041Z,33.06
2018-09-18T15:33:30.041Z,32.71
2018-09-18T15:35:58.493Z,32.38
2018-09-18T15:38:28.172Z,32.40
2018-09-18T15:40:57.876Z,32.91
2018-09-18T15:43:26.776Z,32.73
2018-09-18T15:45:56.926Z,32.75
2018-09-18T15:48:25.714Z,33.19
2018-09-18T15:50:54.673Z,32.65
2018-09-18T15:53:23.183Z,32.96
2018-09-18T15:55:52.270Z,32.82
2018-09-18T15:58:24.132Z,33.44
2018-09-18T16:00:52.984Z,33.56
2018-09-18T16:03:21.872Z,33.61
2018-09-18T16:05:50.740Z,33.59
2018-09-18T16:08:19.951Z,33.13
2018-09-18T16:10:48.644Z,33.52
2018-09-18T16:13:17.319Z,33.74
2018-09-18T16:15:47.272Z,33.37
2018-09-18T16:18:15.835Z,33.27
2018-09-18T16:20:46.034Z,33.47
2018-09-18T16:23:14.900Z,33.46
2018-09-18T16:25:44.683Z,33.24
2018-09-18T16:28:13.833Z,33.34
2018-09-18T16:30:42.543Z,33.63
2018-09-18T16:33:13.013Z,33.18
2018-09-18T16:35:42.605Z,33.01
2018-09-18T16:38:11.072Z,33.01
2018-09-18T16:40:40.365Z,33.28
2018-09-18T16:43:10.537Z,33.34
2018-09-18T16:45:40.123Z,33.51
2018-09-18T16:48:09.053Z,33.20
2018-09-18T16:50:39.352Z,32.93
2018-09-18T16:53:08.709Z,32.65
2018-09-18T16:55:39.902Z,32.43
2018-09-18T16:58:08.936Z,31.74
2018-09-18T17:00:38.481Z,31.45
2018-09-18T17:03:07.308Z,31.28
2018-09-18T17:05:36.087Z,30.86
2018-09-18T17:08:05.077Z,30.70
2018-09-18T17:10:34.559Z,30.53
2018-09-18T17:13:03.516Z,30.59
2018-09-18T17:15:34.268Z,30.44
2018-09-18T17:18:03.600Z,30.19
2018-09-18T17:20:32.266Z,30.06
2018-09-18T17:23:01.864Z,29.89
2018-09-18T17:25:33.833Z,29.73
2018-09-18T17:28:04.481Z,29.68
2018-09-18T17:30:33.409Z,29.56
2018-09-18T17:33:02.451Z,29.54
2018-09-18T17:35:30.965Z,29.43
2018-09-18T17:38:00.287Z,29.35
2018-09-18T17:40:29.537Z,29.22
2018-09-18T17:42:59.645Z,29.14
2018-09-18T17:45:28.633Z,29.05
2018-09-18T17:47:57.526Z,28.84
2018-09-18T17:50:27.227Z,28.74
2018-09-18T17:52:56.139Z,28.62
2018-09-18T17:55:25.468Z,28.48
2018-09-18T17:57:54.798Z,28.33
2018-09-18T18:00:23.301Z,28.17
2018-09-18T18:02:52.795Z,28.07
2018-09-18T18:05:23.343Z,28.02
2018-09-18T18:07:52.412Z,27.94
2018-09-18T18:10:21.257Z,27.92
2018-09-18T18:12:50.111Z,27.69
2018-09-18T18:15:19.852Z,27.29
2018-09-18T18:17:50.560Z,26.80
2018-09-18T18:20:19.115Z,26.78
2018-09-18T18:22:48.556Z,26.86
2018-09-18T18:25:17.058Z,26.95
2018-09-18T18:27:50.048Z,25.99
2018-09-18T18:30:19.291Z,25.95
2018-09-18T18:32:47.745Z,26.17
2018-09-18T18:35:17.189Z,26.21
2018-09-18T18:37:45.967Z,26.36
2018-09-18T18:40:15.031Z,26.46
2018-09-18T18:42:43.823Z,26.46
2018-09-18T18:45:12.962Z,26.47
2018-09-18T18:47:42.488Z,26.41
2018-09-18T18:50:11.088Z,26.33
2018-09-18T18:52:40.507Z,26.40
2018-09-18T18:55:09.362Z,26.39
2018-09-18T18:57:38.697Z,26.38
2018-09-18T19:00:08.305Z,26.46
2018-09-18T19:02:38.162Z,26.41
2018-09-18T19:05:06.708Z,26.43
2018-09-18T19:07:35.164Z,26.37
2018-09-18T19:10:03.715Z,26.34
2018-09-18T19:12:34.173Z,26.34
2018-09-18T19:15:03.121Z,26.35
2018-09-18T19:17:32.477Z,26.31
2018-09-18T19:20:01.936Z,26.21
2018-09-18T19:22:31.250Z,26.20
2018-09-18T19:25:00.638Z,26.13
2018-09-18T19:27:30.805Z,26.07
2018-09-18T19:30:00.085Z,26.06
2018-09-18T19:32:28.772Z,26.05
2018-09-18T19:34:58.607Z,25.91
2018-09-18T19:37:28.105Z,25.71
2018-09-18T19:40:00.013Z,25.59
2018-09-18T19:42:28.829Z,25.57
2018-09-18T19:44:57.311Z,25.45
2018-09-18T19:47:25.774Z,25.38
2018-09-18T19:49:54.707Z,25.26
2018-09-18T19:52:23.905Z,25.20
2018-09-18T19:54:53.785Z,25.08
2018-09-18T19:57:22.468Z,25.00
2018-09-18T19:59:50.956Z,25.06
2018-09-18T20:02:20.284Z,24.88
2018-09-18T20:04:49.076Z,24.66
2018-09-18T20:07:18.269Z,24.75
2018-09-18T20:09:47.638Z,24.58
2018-09-18T20:12:17.669Z,24.41
2018-09-18T20:14:46.883Z,24.34
2018-09-18T20:17:17.424Z,24.23
2018-09-18T20:19:45.926Z,24.27
2018-09-18T20:22:16.060Z,24.18
2018-09-18T20:24:45.217Z,24.32
2018-09-18T20:27:14.390Z,24.10
2018-09-18T20:29:43.151Z,24.04
2018-09-18T20:32:13.276Z,23.94
2018-09-18T20:34:43.872Z,23.93
2018-09-18T20:37:12.925Z,23.80
2018-09-18T20:39:42.666Z,23.78
2018-09-18T20:42:11.257Z,23.71
2018-09-18T20:44:40.734Z,23.74
2018-09-18T20:47:10.256Z,23.61
2018-09-18T20:49:39.202Z,23.70
2018-09-18T20:52:07.700Z,23.61
2018-09-18T20:54:36.496Z,23.20
2018-09-18T20:57:06.637Z,23.18
2018-09-18T20:59:35.087Z,23.13
2018-09-18T21:02:03.707Z,23.04
2018-09-18T21:04:32.821Z,22.93
2018-09-18T21:07:02.355Z,22.76
2018-09-18T21:09:31.810Z,22.87
2018-09-18T21:12:00.964Z,22.93
2018-09-18T21:14:30.470Z,22.82
2018-09-18T21:17:00.775Z,22.74
2018-09-18T21:19:30.617Z,22.52
2018-09-18T21:22:00.515Z,22.54
2018-09-18T21:24:30.751Z,22.59
2018-09-18T21:27:00.028Z,22.45
2018-09-18T21:29:29.327Z,22.38
2018-09-18T21:31:57.815Z,22.38
2018-09-18T21:34:26.280Z,22.42
2018-09-18T21:36:59.536Z,22.40
2018-09-18T21:39:29.278Z,22.30
2018-09-18T21:41:58.388Z,22.39
2018-09-18T21:44:27.080Z,22.39
2018-09-18T21:46:56.756Z,22.23
2018-09-18T21:49:26.226Z,22.19
2018-09-18T21:51:58.685Z,22.11
2018-09-18T21:54:27.865Z,21.90
2018-09-18T21:56:56.598Z,21.62
2018-09-18T21:59:25.471Z,21.33
2018-09-18T22:01:54.864Z,21.51
2018-09-18T22:04:23.328Z,21.35
2018-09-18T22:06:52.662Z,21.26
2018-09-18T22:09:21.088Z,21.24
2018-09-18T22:11:50.918Z,21.34
2018-09-18T22:14:20.077Z,21.22
2018-09-18T22:16:49.356Z,21.29
2018-09-18T22:19:17.932Z,21.34
2018-09-18T22:21:46.877Z,21.45
2018-09-18T22:24:15.397Z,21.43
2018-09-18T22:26:45.085Z,21.38
2018-09-18T22:29:14.414Z,21.42
2018-09-18T22:31:43.319Z,21.30
2018-09-18T22:34:12.142Z,21.24
2018-09-18T22:36:41.058Z,21.27
2018-09-18T22:39:10.381Z,21.29
2018-09-18T22:41:39.985Z,20.94
2018-09-18T22:44:10.617Z,20.81
2018-09-18T22:46:39.791Z,20.99
2018-09-18T22:49:09.596Z,20.96
2018-09-18T22:51:38.754Z,20.80
2018-09-18T22:54:07.857Z,20.65
2018-09-18T22:56:36.377Z,20.72
2018-09-18T22:59:06.480Z,20.74
2018-09-18T23:01:35.287Z,20.74
2018-09-18T23:04:03.979Z,20.79
2018-09-18T23:06:33.780Z,20.89
2018-09-18T23:09:04.039Z,20.85
2018-09-18T23:11:32.841Z,20.82
2018-09-18T23:14:01.280Z,20.73
2018-09-18T23:16:29.764Z,20.76
2018-09-18T23:18:58.291Z,20.57
2018-09-18T23:21:27.561Z,20.45
2018-09-18T23:23:57.188Z,20.37
2018-09-18T23:26:25.637Z,20.29
2018-09-18T23:28:54.125Z,20.28
2018-09-18T23:31:24.657Z,20.30
2018-09-18T23:33:53.528Z,20.43
2018-09-18T23:36:21.992Z,20.30
2018-09-18T23:38:51.139Z,20.17
2018-09-18T23:41:19.687Z,20.13
2018-09-18T23:43:48.740Z,20.01
2018-09-18T23:46:18.676Z,19.84
2018-09-18T23:48:47.628Z,19.90
2018-09-18T23:51:16.077Z,19.91
2018-09-18T23:53:45.199Z,19.61
2018-09-18T23:56:14.025Z,19.35
2018-09-18T23:58:42.951Z,19.34
